sensor_id;sensor_type;location;lat;lon;timestamp;P1;durP1;ratioP1;P2;durP2;ratioP2
39314;SDS011;28703;44.412;11.918;2023-07-30T00:01:33;45.08;;;41.70;;
39314;SDS011;28703;44.412;11.918;2023-07-30T00:03:59;41.47;;;38.33;;
39314;SDS011;28703;44.412;11.918;2023-07-30T00:06:25;46.33;;;42.85;;
39314;SDS011;28703;44.412;11.918;2023-07-30T00:08:51;42.45;;;39.78;;
39314;SDS011;28703;44.412;11.918;2023-07-30T00:11:17;42.00;;;38.95;;
39314;SDS011;28703;44.412;11.918;2023-07-30T00:13:42;38.38;;;35.60;;
39314;SDS011;28703;44.412;11.918;2023-07-30T00:16:08;41.65;;;39.00;;
39314;SDS011;28703;44.412;11.918;2023-07-30T00:18:34;42.65;;;39.65;;
39314;SDS011;28703;44.412;11.918;2023-07-30T00:21:00;48.10;;;44.85;;
39314;SDS011;28703;44.412;11.918;2023-07-30T00:23:26;52.35;;;49.10;;
39314;SDS011;28703;44.412;11.918;2023-07-30T00:25:53;167.57;;;156.88;;
39314;SDS011;28703;44.412;11.918;2023-07-30T00:28:19;215.73;;;201.88;;
39314;SDS011;28703;44.412;11.918;2023-07-30T00:30:46;231.18;;;216.60;;
39314;SDS011;28703;44.412;11.918;2023-07-30T00:33:12;56.42;;;52.85;;
39314;SDS011;28703;44.412;11.918;2023-07-30T00:35:38;44.35;;;41.38;;
39314;SDS011;28703;44.412;11.918;2023-07-30T00:38:07;262.85;;;245.95;;
39314;SDS011;28703;44.412;11.918;2023-07-30T00:40:33;252.63;;;236.32;;
39314;SDS011;28703;44.412;11.918;2023-07-30T00:43:04;35.08;;;32.78;;
39314;SDS011;28703;44.412;11.918;2023-07-30T00:45:30;40.83;;;38.05;;
39314;SDS011;28703;44.412;11.918;2023-07-30T00:47:56;34.22;;;32.03;;
39314;SDS011;28703;44.412;11.918;2023-07-30T00:50:22;295.67;;;278.13;;
39314;SDS011;28703;44.412;11.918;2023-07-30T00:52:48;256.60;;;240.27;;
39314;SDS011;28703;44.412;11.918;2023-07-30T00:55:15;175.90;;;164.95;;
39314;SDS011;28703;44.412;11.918;2023-07-30T00:57:41;288.17;;;268.13;;
39314;SDS011;28703;44.412;11.918;2023-07-30T01:00:08;269.65;;;251.15;;
39314;SDS011;28703;44.412;11.918;2023-07-30T01:02:35;300.27;;;279.02;;
39314;SDS011;28703;44.412;11.918;2023-07-30T01:05:01;203.65;;;190.52;;
39314;SDS011;28703;44.412;11.918;2023-07-30T01:07:31;310.30;;;288.83;;
39314;SDS011;28703;44.412;11.918;2023-07-30T01:09:57;332.90;;;309.35;;
39314;SDS011;28703;44.412;11.918;2023-07-30T01:12:24;329.75;;;306.33;;
39314;SDS011;28703;44.412;11.918;2023-07-30T01:14:51;186.02;;;175.25;;
39314;SDS011;28703;44.412;11.918;2023-07-30T01:17:21;135.40;;;127.10;;
39314;SDS011;28703;44.412;11.918;2023-07-30T01:19:47;100.10;;;94.20;;
39314;SDS011;28703;44.412;11.918;2023-07-30T01:22:15;64.90;;;60.92;;
39314;SDS011;28703;44.412;11.918;2023-07-30T01:24:41;95.22;;;89.63;;
39314;SDS011;28703;44.412;11.918;2023-07-30T01:27:07;143.57;;;135.27;;
39314;SDS011;28703;44.412;11.918;2023-07-30T01:29:42;110.07;;;103.70;;
39314;SDS011;28703;44.412;11.918;2023-07-30T01:32:10;5.82;;;5.43;;
39314;SDS011;28703;44.412;11.918;2023-07-30T01:34:37;6.60;;;5.97;;
39314;SDS011;28703;44.412;11.918;2023-07-30T01:37:04;6.45;;;5.95;;
39314;SDS011;28703;44.412;11.918;2023-07-30T01:39:33;6.55;;;5.85;;
39314;SDS011;28703;44.412;11.918;2023-07-30T01:42:03;5.10;;;4.05;;
39314;SDS011;28703;44.412;11.918;2023-07-30T01:44:29;7.53;;;6.07;;
39314;SDS011;28703;44.412;11.918;2023-07-30T01:46:55;6.00;;;5.60;;
39314;SDS011;28703;44.412;11.918;2023-07-30T01:49:21;4.40;;;3.85;;
39314;SDS011;28703;44.412;11.918;2023-07-30T01:51:47;3.33;;;3.03;;
39314;SDS011;28703;44.412;11.918;2023-07-30T01:54:13;3.90;;;3.03;;
39314;SDS011;28703;44.412;11.918;2023-07-30T01:56:39;3.97;;;2.33;;
39314;SDS011;28703;44.412;11.918;2023-07-30T01:59:05;2.45;;;1.88;;
39314;SDS011;28703;44.412;11.918;2023-07-30T02:01:31;2.55;;;1.73;;
39314;SDS011;28703;44.412;11.918;2023-07-30T02:03:57;3.75;;;1.60;;
39314;SDS011;28703;44.412;11.918;2023-07-30T02:06:23;2.70;;;2.10;;
39314;SDS011;28703;44.412;11.918;2023-07-30T02:08:49;4.05;;;1.83;;
39314;SDS011;28703;44.412;11.918;2023-07-30T02:11:14;2.70;;;2.30;;
39314;SDS011;28703;44.412;11.918;2023-07-30T02:13:40;5.03;;;1.80;;
39314;SDS011;28703;44.412;11.918;2023-07-30T02:16:07;5.57;;;1.80;;
39314;SDS011;28703;44.412;11.918;2023-07-30T02:18:33;2.10;;;1.90;;
39314;SDS011;28703;44.412;11.918;2023-07-30T02:20:59;2.88;;;2.08;;
39314;SDS011;28703;44.412;11.918;2023-07-30T02:23:25;2.85;;;2.00;;
39314;SDS011;28703;44.412;11.918;2023-07-30T02:25:51;6.40;;;2.35;;
39314;SDS011;28703;44.412;11.918;2023-07-30T02:28:17;5.00;;;1.92;;
39314;SDS011;28703;44.412;11.918;2023-07-30T02:30:43;3.05;;;1.98;;
39314;SDS011;28703;44.412;11.918;2023-07-30T02:33:09;3.17;;;2.30;;
39314;SDS011;28703;44.412;11.918;2023-07-30T02:35:34;2.53;;;2.33;;
39314;SDS011;28703;44.412;11.918;2023-07-30T02:38:01;3.83;;;2.38;;
39314;SDS011;28703;44.412;11.918;2023-07-30T02:40:26;5.22;;;3.08;;
39314;SDS011;28703;44.412;11.918;2023-07-30T02:42:52;6.57;;;3.10;;
39314;SDS011;28703;44.412;11.918;2023-07-30T02:45:18;3.53;;;2.97;;
39314;SDS011;28703;44.412;11.918;2023-07-30T02:47:44;6.93;;;3.33;;
39314;SDS011;28703;44.412;11.918;2023-07-30T02:50:10;6.18;;;3.13;;
39314;SDS011;28703;44.412;11.918;2023-07-30T02:52:36;4.57;;;4.18;;
39314;SDS011;28703;44.412;11.918;2023-07-30T02:55:02;6.03;;;5.50;;
39314;SDS011;28703;44.412;11.918;2023-07-30T02:57:28;7.10;;;6.70;;
39314;SDS011;28703;44.412;11.918;2023-07-30T02:59:54;8.07;;;7.38;;
39314;SDS011;28703;44.412;11.918;2023-07-30T03:02:20;9.60;;;8.77;;
39314;SDS011;28703;44.412;11.918;2023-07-30T03:04:45;9.75;;;9.05;;
39314;SDS011;28703;44.412;11.918;2023-07-30T03:07:11;12.15;;;11.00;;
39314;SDS011;28703;44.412;11.918;2023-07-30T03:09:38;11.30;;;10.50;;
39314;SDS011;28703;44.412;11.918;2023-07-30T03:12:04;15.70;;;14.32;;
39314;SDS011;28703;44.412;11.918;2023-07-30T03:14:30;11.18;;;10.38;;
39314;SDS011;28703;44.412;11.918;2023-07-30T03:16:56;21.73;;;20.13;;
39314;SDS011;28703;44.412;11.918;2023-07-30T03:19:22;14.32;;;13.02;;
39314;SDS011;28703;44.412;11.918;2023-07-30T03:21:47;16.90;;;15.90;;
39314;SDS011;28703;44.412;11.918;2023-07-30T03:24:13;18.50;;;17.02;;
39314;SDS011;28703;44.412;11.918;2023-07-30T03:26:39;17.42;;;16.23;;
39314;SDS011;28703;44.412;11.918;2023-07-30T03:29:05;115.55;;;108.30;;
39314;SDS011;28703;44.412;11.918;2023-07-30T03:31:31;15.63;;;14.23;;
39314;SDS011;28703;44.412;11.918;2023-07-30T03:33:57;35.38;;;33.05;;
39314;SDS011;28703;44.412;11.918;2023-07-30T03:36:23;13.70;;;12.43;;
39314;SDS011;28703;44.412;11.918;2023-07-30T03:38:48;26.25;;;24.48;;
39314;SDS011;28703;44.412;11.918;2023-07-30T03:41:14;13.00;;;12.10;;
39314;SDS011;28703;44.412;11.918;2023-07-30T03:43:40;12.90;;;12.00;;
39314;SDS011;28703;44.412;11.918;2023-07-30T03:46:06;13.70;;;12.75;;
39314;SDS011;28703;44.412;11.918;2023-07-30T03:48:32;13.32;;;12.18;;
39314;SDS011;28703;44.412;11.918;2023-07-30T03:50:58;15.55;;;14.40;;
39314;SDS011;28703;44.412;11.918;2023-07-30T03:53:24;56.80;;;52.60;;
39314;SDS011;28703;44.412;11.918;2023-07-30T03:55:52;25.50;;;23.80;;
39314;SDS011;28703;44.412;11.918;2023-07-30T03:58:18;54.85;;;51.33;;
39314;SDS011;28703;44.412;11.918;2023-07-30T04:00:44;22.20;;;20.55;;
39314;SDS011;28703;44.412;11.918;2023-07-30T04:03:10;29.55;;;27.65;;
39314;SDS011;28703;44.412;11.918;2023-07-30T04:05:36;40.28;;;37.58;;
39314;SDS011;28703;44.412;11.918;2023-07-30T04:08:02;37.15;;;34.53;;
39314;SDS011;28703;44.412;11.918;2023-07-30T04:10:27;19.23;;;17.73;;
39314;SDS011;28703;44.412;11.918;2023-07-30T04:12:54;23.27;;;21.63;;
39314;SDS011;28703;44.412;11.918;2023-07-30T04:15:20;22.60;;;20.77;;
39314;SDS011;28703;44.412;11.918;2023-07-30T04:17:46;20.17;;;18.60;;
39314;SDS011;28703;44.412;11.918;2023-07-30T04:20:12;20.58;;;19.08;;
39314;SDS011;28703;44.412;11.918;2023-07-30T04:22:38;26.50;;;24.35;;
39314;SDS011;28703;44.412;11.918;2023-07-30T04:25:07;24.58;;;22.48;;
39314;SDS011;28703;44.412;11.918;2023-07-30T04:27:33;27.00;;;25.08;;
39314;SDS011;28703;44.412;11.918;2023-07-30T04:29:59;33.35;;;30.98;;
39314;SDS011;28703;44.412;11.918;2023-07-30T04:32:25;32.70;;;30.50;;
39314;SDS011;28703;44.412;11.918;2023-07-30T04:34:51;35.65;;;33.25;;
39314;SDS011;28703;44.412;11.918;2023-07-30T04:37:17;35.75;;;33.22;;
39314;SDS011;28703;44.412;11.918;2023-07-30T04:39:43;29.65;;;27.58;;
39314;SDS011;28703;44.412;11.918;2023-07-30T04:42:09;22.60;;;20.92;;
39314;SDS011;28703;44.412;11.918;2023-07-30T04:44:35;16.30;;;15.10;;
39314;SDS011;28703;44.412;11.918;2023-07-30T04:47:10;17.20;;;15.40;;
39314;SDS011;28703;44.412;11.918;2023-07-30T04:49:35;14.70;;;13.60;;
39314;SDS011;28703;44.412;11.918;2023-07-30T04:52:03;21.45;;;20.10;;
39314;SDS011;28703;44.412;11.918;2023-07-30T04:54:29;18.67;;;17.45;;
39314;SDS011;28703;44.412;11.918;2023-07-30T04:56:55;18.25;;;16.95;;
39314;SDS011;28703;44.412;11.918;2023-07-30T04:59:21;18.58;;;17.27;;
39314;SDS011;28703;44.412;11.918;2023-07-30T05:01:46;22.25;;;20.73;;
39314;SDS011;28703;44.412;11.918;2023-07-30T05:04:12;22.25;;;20.45;;
39314;SDS011;28703;44.412;11.918;2023-07-30T05:06:38;26.02;;;24.23;;
39314;SDS011;28703;44.412;11.918;2023-07-30T05:09:04;22.38;;;20.48;;
39314;SDS011;28703;44.412;11.918;2023-07-30T05:11:30;35.38;;;32.97;;
39314;SDS011;28703;44.412;11.918;2023-07-30T05:13:56;26.77;;;24.92;;
39314;SDS011;28703;44.412;11.918;2023-07-30T05:16:22;50.58;;;46.85;;
39314;SDS011;28703;44.412;11.918;2023-07-30T05:18:48;55.75;;;52.10;;
39314;SDS011;28703;44.412;11.918;2023-07-30T05:21:14;59.65;;;55.90;;
39314;SDS011;28703;44.412;11.918;2023-07-30T05:23:39;63.20;;;59.00;;
39314;SDS011;28703;44.412;11.918;2023-07-30T05:26:05;72.70;;;67.57;;
39314;SDS011;28703;44.412;11.918;2023-07-30T05:28:31;111.20;;;104.05;;
39314;SDS011;28703;44.412;11.918;2023-07-30T05:30:58;136.85;;;128.40;;
39314;SDS011;28703;44.412;11.918;2023-07-30T05:33:24;77.68;;;72.50;;
39314;SDS011;28703;44.412;11.918;2023-07-30T05:35:50;131.48;;;123.10;;
39314;SDS011;28703;44.412;11.918;2023-07-30T05:38:15;132.48;;;123.95;;
39314;SDS011;28703;44.412;11.918;2023-07-30T05:40:42;127.65;;;119.68;;
39314;SDS011;28703;44.412;11.918;2023-07-30T05:43:08;178.93;;;167.77;;
39314;SDS011;28703;44.412;11.918;2023-07-30T05:45:34;297.65;;;278.52;;
39314;SDS011;28703;44.412;11.918;2023-07-30T05:48:00;336.95;;;314.63;;
39314;SDS011;28703;44.412;11.918;2023-07-30T05:50:26;161.85;;;151.43;;
39314;SDS011;28703;44.412;11.918;2023-07-30T05:52:52;108.55;;;101.80;;
39314;SDS011;28703;44.412;11.918;2023-07-30T05:55:18;85.15;;;79.65;;
39314;SDS011;28703;44.412;11.918;2023-07-30T05:57:44;75.30;;;70.55;;
39314;SDS011;28703;44.412;11.918;2023-07-30T06:00:09;71.10;;;66.35;;
39314;SDS011;28703;44.412;11.918;2023-07-30T06:02:38;96.15;;;89.85;;
39314;SDS011;28703;44.412;11.918;2023-07-30T06:05:04;81.25;;;75.22;;
39314;SDS011;28703;44.412;11.918;2023-07-30T06:07:30;78.05;;;72.75;;
39314;SDS011;28703;44.412;11.918;2023-07-30T06:09:56;82.78;;;76.90;;
39314;SDS011;28703;44.412;11.918;2023-07-30T06:12:22;86.13;;;80.60;;
39314;SDS011;28703;44.412;11.918;2023-07-30T06:14:47;81.75;;;76.63;;
39314;SDS011;28703;44.412;11.918;2023-07-30T06:17:13;67.65;;;63.20;;
39314;SDS011;28703;44.412;11.918;2023-07-30T06:19:39;58.80;;;54.55;;
39314;SDS011;28703;44.412;11.918;2023-07-30T06:22:05;104.07;;;97.45;;
39314;SDS011;28703;44.412;11.918;2023-07-30T06:24:31;96.40;;;90.03;;
39314;SDS011;28703;44.412;11.918;2023-07-30T06:26:56;188.80;;;175.30;;
39314;SDS011;28703;44.412;11.918;2023-07-30T06:29:22;179.43;;;167.20;;
39314;SDS011;28703;44.412;11.918;2023-07-30T06:31:48;167.30;;;155.90;;
39314;SDS011;28703;44.412;11.918;2023-07-30T06:34:14;151.50;;;141.55;;
39314;SDS011;28703;44.412;11.918;2023-07-30T06:36:40;121.35;;;113.07;;
39314;SDS011;28703;44.412;11.918;2023-07-30T06:39:06;126.10;;;117.78;;
39314;SDS011;28703;44.412;11.918;2023-07-30T06:41:32;81.78;;;76.63;;
39314;SDS011;28703;44.412;11.918;2023-07-30T06:43:59;158.82;;;148.13;;
39314;SDS011;28703;44.412;11.918;2023-07-30T06:46:25;108.95;;;101.70;;
39314;SDS011;28703;44.412;11.918;2023-07-30T06:48:50;97.07;;;90.80;;
39314;SDS011;28703;44.412;11.918;2023-07-30T06:51:19;183.90;;;172.10;;
39314;SDS011;28703;44.412;11.918;2023-07-30T06:53:45;172.05;;;161.23;;
39314;SDS011;28703;44.412;11.918;2023-07-30T06:56:11;160.02;;;149.95;;
39314;SDS011;28703;44.412;11.918;2023-07-30T06:58:37;297.13;;;277.85;;
39314;SDS011;28703;44.412;11.918;2023-07-30T07:01:03;201.80;;;188.77;;
39314;SDS011;28703;44.412;11.918;2023-07-30T07:03:28;290.00;;;271.63;;
39314;SDS011;28703;44.412;11.918;2023-07-30T07:05:55;346.20;;;323.88;;
39314;SDS011;28703;44.412;11.918;2023-07-30T07:08:21;260.95;;;244.35;;
39314;SDS011;28703;44.412;11.918;2023-07-30T07:10:47;319.13;;;298.25;;
39314;SDS011;28703;44.412;11.918;2023-07-30T07:13:13;273.50;;;255.70;;
39314;SDS011;28703;44.412;11.918;2023-07-30T07:15:40;251.25;;;235.50;;
39314;SDS011;28703;44.412;11.918;2023-07-30T07:18:07;185.93;;;174.57;;
39314;SDS011;28703;44.412;11.918;2023-07-30T07:20:33;290.65;;;272.15;;
39314;SDS011;28703;44.412;11.918;2023-07-30T07:22:59;414.85;;;387.48;;
39314;SDS011;28703;44.412;11.918;2023-07-30T07:25:25;408.48;;;381.08;;
39314;SDS011;28703;44.412;11.918;2023-07-30T07:27:51;399.75;;;372.67;;
39314;SDS011;28703;44.412;11.918;2023-07-30T07:30:17;430.90;;;401.65;;
39314;SDS011;28703;44.412;11.918;2023-07-30T07:32:42;464.95;;;433.00;;
39314;SDS011;28703;44.412;11.918;2023-07-30T07:35:08;460.80;;;428.58;;
39314;SDS011;28703;44.412;11.918;2023-07-30T07:37:35;475.90;;;442.48;;
39314;SDS011;28703;44.412;11.918;2023-07-30T07:40:01;446.23;;;415.67;;
39314;SDS011;28703;44.412;11.918;2023-07-30T07:42:29;434.77;;;405.23;;
39314;SDS011;28703;44.412;11.918;2023-07-30T07:44:55;260.27;;;243.85;;
39314;SDS011;28703;44.412;11.918;2023-07-30T07:47:21;431.83;;;402.33;;
39314;SDS011;28703;44.412;11.918;2023-07-30T07:49:47;402.80;;;376.25;;
39314;SDS011;28703;44.412;11.918;2023-07-30T07:52:14;401.00;;;374.42;;
39314;SDS011;28703;44.412;11.918;2023-07-30T07:54:40;244.48;;;228.82;;
39314;SDS011;28703;44.412;11.918;2023-07-30T07:57:07;331.75;;;309.77;;
39314;SDS011;28703;44.412;11.918;2023-07-30T07:59:33;410.83;;;383.30;;
39314;SDS011;28703;44.412;11.918;2023-07-30T08:01:59;375.98;;;351.02;;
39314;SDS011;28703;44.412;11.918;2023-07-30T08:04:25;447.40;;;416.80;;
39314;SDS011;28703;44.412;11.918;2023-07-30T08:06:51;549.40;;;509.65;;
39314;SDS011;28703;44.412;11.918;2023-07-30T08:09:17;494.02;;;459.52;;
39314;SDS011;28703;44.412;11.918;2023-07-30T08:11:43;476.95;;;443.70;;
39314;SDS011;28703;44.412;11.918;2023-07-30T08:14:09;504.30;;;468.20;;
39314;SDS011;28703;44.412;11.918;2023-07-30T08:16:35;502.23;;;466.50;;
39314;SDS011;28703;44.412;11.918;2023-07-30T08:19:00;510.73;;;474.50;;
39314;SDS011;28703;44.412;11.918;2023-07-30T08:21:26;532.28;;;493.98;;
39314;SDS011;28703;44.412;11.918;2023-07-30T08:23:52;526.80;;;489.13;;
39314;SDS011;28703;44.412;11.918;2023-07-30T08:26:18;513.03;;;476.25;;
39314;SDS011;28703;44.412;11.918;2023-07-30T08:28:44;535.70;;;496.88;;
39314;SDS011;28703;44.412;11.918;2023-07-30T08:31:10;555.40;;;514.40;;
39314;SDS011;28703;44.412;11.918;2023-07-30T08:33:36;644.60;;;594.90;;
39314;SDS011;28703;44.412;11.918;2023-07-30T08:36:01;469.13;;;434.13;;
39314;SDS011;28703;44.412;11.918;2023-07-30T08:38:28;460.20;;;425.60;;
39314;SDS011;28703;44.412;11.918;2023-07-30T08:40:54;432.98;;;401.27;;
39314;SDS011;28703;44.412;11.918;2023-07-30T08:43:20;498.50;;;459.90;;
39314;SDS011;28703;44.412;11.918;2023-07-30T08:45:46;519.00;;;478.33;;
39314;SDS011;28703;44.412;11.918;2023-07-30T08:48:12;484.05;;;447.35;;
39314;SDS011;28703;44.412;11.918;2023-07-30T08:50:39;496.20;;;458.15;;
39314;SDS011;28703;44.412;11.918;2023-07-30T08:53:05;468.25;;;432.17;;
39314;SDS011;28703;44.412;11.918;2023-07-30T08:55:33;472.35;;;435.88;;
39314;SDS011;28703;44.412;11.918;2023-07-30T08:58:02;487.10;;;448.75;;
39314;SDS011;28703;44.412;11.918;2023-07-30T09:00:31;486.75;;;448.73;;
39314;SDS011;28703;44.412;11.918;2023-07-30T09:03:00;443.70;;;409.55;;
39314;SDS011;28703;44.412;11.918;2023-07-30T09:05:29;385.02;;;356.60;;
39314;SDS011;28703;44.412;11.918;2023-07-30T09:07:55;315.10;;;292.13;;
39314;SDS011;28703;44.412;11.918;2023-07-30T09:10:22;253.35;;;235.32;;
39314;SDS011;28703;44.412;11.918;2023-07-30T09:12:54;227.70;;;211.43;;
39314;SDS011;28703;44.412;11.918;2023-07-30T09:15:33;223.15;;;206.80;;
39314;SDS011;28703;44.412;11.918;2023-07-30T09:18:02;196.98;;;182.55;;
39314;SDS011;28703;44.412;11.918;2023-07-30T09:20:36;175.15;;;163.05;;
39314;SDS011;28703;44.412;11.918;2023-07-30T09:23:04;136.88;;;126.70;;
39314;SDS011;28703;44.412;11.918;2023-07-30T09:25:31;133.95;;;124.68;;
39314;SDS011;28703;44.412;11.918;2023-07-30T09:27:57;124.10;;;115.88;;
39314;SDS011;28703;44.412;11.918;2023-07-30T09:30:24;222.15;;;207.18;;
39314;SDS011;28703;44.412;11.918;2023-07-30T09:32:53;258.00;;;240.65;;
39314;SDS011;28703;44.412;11.918;2023-07-30T09:35:26;268.00;;;249.60;;
39314;SDS011;28703;44.412;11.918;2023-07-30T09:38:02;342.05;;;319.05;;
39314;SDS011;28703;44.412;11.918;2023-07-30T09:40:35;404.45;;;376.88;;
39314;SDS011;28703;44.412;11.918;2023-07-30T09:43:04;396.90;;;369.55;;
39314;SDS011;28703;44.412;11.918;2023-07-30T09:45:33;389.48;;;362.13;;
39314;SDS011;28703;44.412;11.918;2023-07-30T09:48:02;363.42;;;338.10;;
39314;SDS011;28703;44.412;11.918;2023-07-30T09:50:30;321.48;;;298.95;;
39314;SDS011;28703;44.412;11.918;2023-07-30T09:53:00;323.63;;;300.95;;
39314;SDS011;28703;44.412;11.918;2023-07-30T09:55:26;235.18;;;219.63;;
39314;SDS011;28703;44.412;11.918;2023-07-30T09:57:53;246.48;;;229.20;;
39314;SDS011;28703;44.412;11.918;2023-07-30T10:00:19;238.98;;;221.90;;
39314;SDS011;28703;44.412;11.918;2023-07-30T10:02:45;201.98;;;186.82;;
39314;SDS011;28703;44.412;11.918;2023-07-30T10:05:16;161.30;;;149.32;;
39314;SDS011;28703;44.412;11.918;2023-07-30T10:07:49;115.72;;;107.20;;
39314;SDS011;28703;44.412;11.918;2023-07-30T10:10:24;98.18;;;91.30;;
39314;SDS011;28703;44.412;11.918;2023-07-30T10:12:51;63.45;;;58.90;;
39314;SDS011;28703;44.412;11.918;2023-07-30T10:15:20;59.38;;;55.53;;
39314;SDS011;28703;44.412;11.918;2023-07-30T10:17:49;64.95;;;60.90;;
39314;SDS011;28703;44.412;11.918;2023-07-30T10:20:24;68.18;;;63.83;;
39314;SDS011;28703;44.412;11.918;2023-07-30T10:22:56;76.35;;;71.22;;
39314;SDS011;28703;44.412;11.918;2023-07-30T10:28:31;87.30;;;81.93;;
39314;SDS011;28703;44.412;11.918;2023-07-30T10:30:59;97.93;;;91.55;;
39314;SDS011;28703;44.412;11.918;2023-07-30T10:36:12;65.40;;;61.42;;
39314;SDS011;28703;44.412;11.918;2023-07-30T10:38:39;64.28;;;60.08;;
39314;SDS011;28703;44.412;11.918;2023-07-30T10:43:46;74.45;;;69.63;;
39314;SDS011;28703;44.412;11.918;2023-07-30T10:46:16;71.35;;;66.15;;
39314;SDS011;28703;44.412;11.918;2023-07-30T10:48:44;62.75;;;58.60;;
39314;SDS011;28703;44.412;11.918;2023-07-30T10:51:12;62.03;;;57.97;;
39314;SDS011;28703;44.412;11.918;2023-07-30T10:53:42;65.72;;;61.45;;
39314;SDS011;28703;44.412;11.918;2023-07-30T10:56:10;36.00;;;33.60;;
39314;SDS011;28703;44.412;11.918;2023-07-30T10:58:37;56.58;;;53.13;;
39314;SDS011;28703;44.412;11.918;2023-07-30T11:01:03;146.45;;;136.98;;
39314;SDS011;28703;44.412;11.918;2023-07-30T11:03:30;82.13;;;77.20;;
39314;SDS011;28703;44.412;11.918;2023-07-30T11:05:59;85.50;;;80.22;;
39314;SDS011;28703;44.412;11.918;2023-07-30T11:08:38;90.05;;;84.28;;
39314;SDS011;28703;44.412;11.918;2023-07-30T11:11:06;88.00;;;82.53;;
39314;SDS011;28703;44.412;11.918;2023-07-30T11:13:37;89.85;;;84.40;;
39314;SDS011;28703;44.412;11.918;2023-07-30T11:16:05;81.88;;;76.63;;
39314;SDS011;28703;44.412;11.918;2023-07-30T11:18:35;80.10;;;75.03;;
39314;SDS011;28703;44.412;11.918;2023-07-30T11:21:05;92.85;;;86.90;;
39314;SDS011;28703;44.412;11.918;2023-07-30T11:23:36;90.00;;;84.18;;
39314;SDS011;28703;44.412;11.918;2023-07-30T11:26:04;80.10;;;75.03;;
39314;SDS011;28703;44.412;11.918;2023-07-30T11:31:03;74.78;;;70.25;;
39314;SDS011;28703;44.412;11.918;2023-07-30T11:33:43;76.95;;;72.25;;
39314;SDS011;28703;44.412;11.918;2023-07-30T11:36:15;78.82;;;74.13;;
39314;SDS011;28703;44.412;11.918;2023-07-30T11:38:43;74.80;;;70.15;;
39314;SDS011;28703;44.412;11.918;2023-07-30T11:41:10;85.30;;;80.22;;
39314;SDS011;28703;44.412;11.918;2023-07-30T11:43:37;65.50;;;61.30;;
39314;SDS011;28703;44.412;11.918;2023-07-30T11:46:07;86.97;;;81.35;;
39314;SDS011;28703;44.412;11.918;2023-07-30T11:48:34;95.32;;;89.47;;
39314;SDS011;28703;44.412;11.918;2023-07-30T11:51:01;89.93;;;84.00;;
39314;SDS011;28703;44.412;11.918;2023-07-30T11:53:46;85.35;;;79.97;;
39314;SDS011;28703;44.412;11.918;2023-07-30T11:56:21;75.47;;;70.07;;
39314;SDS011;28703;44.412;11.918;2023-07-30T11:58:55;76.50;;;71.68;;
39314;SDS011;28703;44.412;11.918;2023-07-30T12:01:23;96.90;;;90.47;;
39314;SDS011;28703;44.412;11.918;2023-07-30T12:03:56;92.40;;;86.25;;
39314;SDS011;28703;44.412;11.918;2023-07-30T12:06:22;89.57;;;83.72;;
39314;SDS011;28703;44.412;11.918;2023-07-30T12:08:49;92.25;;;86.50;;
39314;SDS011;28703;44.412;11.918;2023-07-30T12:11:16;101.63;;;95.15;;
39314;SDS011;28703;44.412;11.918;2023-07-30T12:13:45;87.63;;;82.00;;
39314;SDS011;28703;44.412;11.918;2023-07-30T12:16:12;88.93;;;83.38;;
39314;SDS011;28703;44.412;11.918;2023-07-30T12:18:39;83.38;;;78.10;;
39314;SDS011;28703;44.412;11.918;2023-07-30T12:21:06;84.97;;;79.75;;
39314;SDS011;28703;44.412;11.918;2023-07-30T12:23:33;69.30;;;64.80;;
39314;SDS011;28703;44.412;11.918;2023-07-30T12:26:01;90.28;;;84.38;;
39314;SDS011;28703;44.412;11.918;2023-07-30T12:28:30;78.97;;;74.07;;
39314;SDS011;28703;44.412;11.918;2023-07-30T12:30:56;61.30;;;57.25;;
39314;SDS011;28703;44.412;11.918;2023-07-30T12:33:22;90.93;;;85.32;;
39314;SDS011;28703;44.412;11.918;2023-07-30T12:35:48;114.18;;;106.97;;
39314;SDS011;28703;44.412;11.918;2023-07-30T12:38:15;79.85;;;74.90;;
39314;SDS011;28703;44.412;11.918;2023-07-30T12:40:41;170.43;;;158.93;;
39314;SDS011;28703;44.412;11.918;2023-07-30T12:43:07;161.70;;;150.57;;
39314;SDS011;28703;44.412;11.918;2023-07-30T12:45:34;150.95;;;140.50;;
39314;SDS011;28703;44.412;11.918;2023-07-30T12:48:00;162.75;;;151.70;;
39314;SDS011;28703;44.412;11.918;2023-07-30T12:50:26;168.35;;;156.80;;
39314;SDS011;28703;44.412;11.918;2023-07-30T12:52:52;175.48;;;163.32;;
39314;SDS011;28703;44.412;11.918;2023-07-30T12:55:18;182.32;;;169.35;;
39314;SDS011;28703;44.412;11.918;2023-07-30T12:57:45;182.98;;;170.05;;
39314;SDS011;28703;44.412;11.918;2023-07-30T13:00:11;172.88;;;160.73;;
39314;SDS011;28703;44.412;11.918;2023-07-30T13:02:37;161.23;;;150.05;;
39314;SDS011;28703;44.412;11.918;2023-07-30T13:05:03;160.57;;;149.48;;
39314;SDS011;28703;44.412;11.918;2023-07-30T13:07:29;161.70;;;150.73;;
39314;SDS011;28703;44.412;11.918;2023-07-30T13:10:02;164.23;;;153.27;;
39314;SDS011;28703;44.412;11.918;2023-07-30T13:12:32;153.90;;;143.43;;
39314;SDS011;28703;44.412;11.918;2023-07-30T13:14:59;158.88;;;147.63;;
39314;SDS011;28703;44.412;11.918;2023-07-30T13:17:25;161.70;;;150.75;;
39314;SDS011;28703;44.412;11.918;2023-07-30T13:19:51;191.10;;;177.48;;
39314;SDS011;28703;44.412;11.918;2023-07-30T13:22:17;198.85;;;184.77;;
39314;SDS011;28703;44.412;11.918;2023-07-30T13:24:43;207.57;;;192.38;;
39314;SDS011;28703;44.412;11.918;2023-07-30T13:27:09;217.48;;;201.55;;
39314;SDS011;28703;44.412;11.918;2023-07-30T13:29:35;219.43;;;203.57;;
39314;SDS011;28703;44.412;11.918;2023-07-30T13:32:01;202.55;;;188.15;;
39314;SDS011;28703;44.412;11.918;2023-07-30T13:34:28;235.05;;;217.95;;
39314;SDS011;28703;44.412;11.918;2023-07-30T13:36:54;246.30;;;228.05;;
39314;SDS011;28703;44.412;11.918;2023-07-30T13:39:20;270.40;;;250.43;;
39314;SDS011;28703;44.412;11.918;2023-07-30T13:41:48;267.15;;;246.77;;
39314;SDS011;28703;44.412;11.918;2023-07-30T13:44:15;298.30;;;275.90;;
39314;SDS011;28703;44.412;11.918;2023-07-30T13:46:41;269.08;;;248.95;;
39314;SDS011;28703;44.412;11.918;2023-07-30T13:49:07;314.50;;;290.45;;
39314;SDS011;28703;44.412;11.918;2023-07-30T13:51:33;322.45;;;297.67;;
39314;SDS011;28703;44.412;11.918;2023-07-30T13:53:59;362.88;;;334.90;;
39314;SDS011;28703;44.412;11.918;2023-07-30T13:56:26;332.42;;;307.45;;
39314;SDS011;28703;44.412;11.918;2023-07-30T13:58:56;358.17;;;331.05;;
39314;SDS011;28703;44.412;11.918;2023-07-30T14:01:22;385.20;;;356.00;;
39314;SDS011;28703;44.412;11.918;2023-07-30T14:03:48;460.65;;;424.23;;
39314;SDS011;28703;44.412;11.918;2023-07-30T14:06:14;437.30;;;403.58;;
39314;SDS011;28703;44.412;11.918;2023-07-30T14:08:40;464.58;;;428.33;;
39314;SDS011;28703;44.412;11.918;2023-07-30T14:11:06;447.15;;;412.40;;